sensor_id;sensor_type;location;lat;lon;timestamp;P1;durP1;ratioP1;P2;durP2;ratioP2
3081;SDS011;1551;51.046;7.010;2023-05-27T00:00:23;11.05;;;4.10;;
3081;SDS011;1551;51.046;7.010;2023-05-27T00:03:13;9.00;;;4.33;;
3081;SDS011;1551;51.046;7.010;2023-05-27T00:06:02;12.32;;;4.10;;
3081;SDS011;1551;51.046;7.010;2023-05-27T00:08:51;9.70;;;4.50;;
3081;SDS011;1551;51.046;7.010;2023-05-27T00:11:40;9.68;;;4.38;;
3081;SDS011;1551;51.046;7.010;2023-05-27T00:14:28;10.80;;;4.72;;
3081;SDS011;1551;51.046;7.010;2023-05-27T00:17:17;11.10;;;3.83;;
3081;SDS011;1551;51.046;7.010;2023-05-27T00:20:08;11.60;;;3.80;;
3081;SDS011;1551;51.046;7.010;2023-05-27T00:22:58;11.35;;;4.60;;
3081;SDS011;1551;51.046;7.010;2023-05-27T00:25:48;7.22;;;3.70;;
3081;SDS011;1551;51.046;7.010;2023-05-27T00:28:37;11.35;;;4.90;;
3081;SDS011;1551;51.046;7.010;2023-05-27T00:31:26;12.13;;;3.85;;
3081;SDS011;1551;51.046;7.010;2023-05-27T00:34:15;14.38;;;4.00;;
3081;SDS011;1551;51.046;7.010;2023-05-27T00:37:04;11.73;;;3.80;;
3081;SDS011;1551;51.046;7.010;2023-05-27T00:39:54;11.98;;;4.30;;
3081;SDS011;1551;51.046;7.010;2023-05-27T00:42:43;13.70;;;4.80;;
3081;SDS011;1551;51.046;7.010;2023-05-27T00:45:32;8.43;;;3.88;;
3081;SDS011;1551;51.046;7.010;2023-05-27T00:48:21;10.73;;;4.00;;
3081;SDS011;1551;51.046;7.010;2023-05-27T00:51:11;12.38;;;4.10;;
3081;SDS011;1551;51.046;7.010;2023-05-27T00:54:00;7.97;;;3.85;;
3081;SDS011;1551;51.046;7.010;2023-05-27T00:56:49;10.05;;;4.60;;
3081;SDS011;1551;51.046;7.010;2023-05-27T00:59:38;13.50;;;4.43;;
3081;SDS011;1551;51.046;7.010;2023-05-27T01:02:27;10.43;;;4.13;;
3081;SDS011;1551;51.046;7.010;2023-05-27T01:05:16;10.80;;;4.00;;
3081;SDS011;1551;51.046;7.010;2023-05-27T01:11:15;9.45;;;4.70;;
3081;SDS011;1551;51.046;7.010;2023-05-27T01:14:13;8.73;;;4.07;;
3081;SDS011;1551;51.046;7.010;2023-05-27T01:17:05;8.48;;;3.67;;
3081;SDS011;1551;51.046;7.010;2023-05-27T01:19:55;9.38;;;4.40;;
3081;SDS011;1551;51.046;7.010;2023-05-27T01:22:44;11.52;;;4.30;;
3081;SDS011;1551;51.046;7.010;2023-05-27T01:25:34;11.15;;;4.68;;
3081;SDS011;1551;51.046;7.010;2023-05-27T01:28:23;7.40;;;4.20;;
3081;SDS011;1551;51.046;7.010;2023-05-27T01:31:13;10.23;;;4.40;;
3081;SDS011;1551;51.046;7.010;2023-05-27T01:34:27;10.35;;;4.30;;
3081;SDS011;1551;51.046;7.010;2023-05-27T01:37:23;10.20;;;4.30;;
3081;SDS011;1551;51.046;7.010;2023-05-27T01:40:14;10.00;;;4.53;;
3081;SDS011;1551;51.046;7.010;2023-05-27T01:43:03;11.70;;;4.57;;
3081;SDS011;1551;51.046;7.010;2023-05-27T01:45:54;12.07;;;4.70;;
3081;SDS011;1551;51.046;7.010;2023-05-27T01:48:43;10.90;;;4.22;;
3081;SDS011;1551;51.046;7.010;2023-05-27T01:51:32;11.48;;;4.53;;
3081;SDS011;1551;51.046;7.010;2023-05-27T01:54:20;9.50;;;4.25;;
3081;SDS011;1551;51.046;7.010;2023-05-27T01:57:10;10.95;;;5.00;;
3081;SDS011;1551;51.046;7.010;2023-05-27T01:59:59;8.70;;;4.15;;
3081;SDS011;1551;51.046;7.010;2023-05-27T02:02:48;9.55;;;4.65;;
3081;SDS011;1551;51.046;7.010;2023-05-27T02:05:39;10.80;;;4.28;;
3081;SDS011;1551;51.046;7.010;2023-05-27T02:08:29;9.80;;;4.00;;
3081;SDS011;1551;51.046;7.010;2023-05-27T02:11:19;14.90;;;4.30;;
3081;SDS011;1551;51.046;7.010;2023-05-27T02:14:08;12.85;;;5.40;;
3081;SDS011;1551;51.046;7.010;2023-05-27T02:16:57;12.93;;;4.05;;
3081;SDS011;1551;51.046;7.010;2023-05-27T02:19:47;11.15;;;4.70;;
3081;SDS011;1551;51.046;7.010;2023-05-27T02:22:36;12.13;;;4.80;;
3081;SDS011;1551;51.046;7.010;2023-05-27T02:25:24;11.77;;;4.25;;
3081;SDS011;1551;51.046;7.010;2023-05-27T02:28:13;9.75;;;4.50;;
3081;SDS011;1551;51.046;7.010;2023-05-27T02:31:02;11.02;;;4.45;;
3081;SDS011;1551;51.046;7.010;2023-05-27T02:33:51;11.23;;;4.40;;
3081;SDS011;1551;51.046;7.010;2023-05-27T02:36:40;11.90;;;4.50;;
3081;SDS011;1551;51.046;7.010;2023-05-27T02:39:30;9.90;;;4.82;;
3081;SDS011;1551;51.046;7.010;2023-05-27T02:42:19;10.40;;;4.47;;
3081;SDS011;1551;51.046;7.010;2023-05-27T02:45:08;12.55;;;4.50;;
3081;SDS011;1551;51.046;7.010;2023-05-27T02:47:57;11.90;;;5.03;;
3081;SDS011;1551;51.046;7.010;2023-05-27T02:50:50;10.20;;;4.22;;
3081;SDS011;1551;51.046;7.010;2023-05-27T02:53:38;12.63;;;4.55;;
3081;SDS011;1551;51.046;7.010;2023-05-27T02:56:27;12.33;;;5.10;;
3081;SDS011;1551;51.046;7.010;2023-05-27T02:59:17;12.73;;;4.63;;
3081;SDS011;1551;51.046;7.010;2023-05-27T03:02:06;11.95;;;4.35;;
3081;SDS011;1551;51.046;7.010;2023-05-27T03:04:55;10.07;;;4.32;;
3081;SDS011;1551;51.046;7.010;2023-05-27T03:07:44;12.18;;;4.88;;
3081;SDS011;1551;51.046;7.010;2023-05-27T03:10:33;10.20;;;4.70;;
3081;SDS011;1551;51.046;7.010;2023-05-27T03:13:23;12.93;;;5.10;;
3081;SDS011;1551;51.046;7.010;2023-05-27T03:16:12;9.60;;;4.63;;
3081;SDS011;1551;51.046;7.010;2023-05-27T03:19:01;10.88;;;4.65;;
3081;SDS011;1551;51.046;7.010;2023-05-27T03:21:51;14.13;;;4.70;;
3081;SDS011;1551;51.046;7.010;2023-05-27T03:24:40;11.48;;;5.10;;
3081;SDS011;1551;51.046;7.010;2023-05-27T03:27:30;9.95;;;4.32;;
3081;SDS011;1551;51.046;7.010;2023-05-27T03:30:20;11.13;;;4.65;;
3081;SDS011;1551;51.046;7.010;2023-05-27T03:33:12;9.88;;;5.30;;
3081;SDS011;1551;51.046;7.010;2023-05-27T03:36:01;12.90;;;5.20;;
3081;SDS011;1551;51.046;7.010;2023-05-27T03:38:50;9.32;;;5.57;;
3081;SDS011;1551;51.046;7.010;2023-05-27T03:41:39;12.18;;;4.75;;
3081;SDS011;1551;51.046;7.010;2023-05-27T03:44:30;9.63;;;5.05;;
3081;SDS011;1551;51.046;7.010;2023-05-27T03:47:19;14.48;;;6.07;;
3081;SDS011;1551;51.046;7.010;2023-05-27T03:50:10;10.13;;;4.75;;
3081;SDS011;1551;51.046;7.010;2023-05-27T03:52:59;9.73;;;4.17;;
3081;SDS011;1551;51.046;7.010;2023-05-27T03:55:49;10.63;;;5.00;;
3081;SDS011;1551;51.046;7.010;2023-05-27T03:58:38;11.50;;;4.10;;
3081;SDS011;1551;51.046;7.010;2023-05-27T04:01:28;8.10;;;4.40;;
3081;SDS011;1551;51.046;7.010;2023-05-27T04:04:17;8.02;;;4.65;;
3081;SDS011;1551;51.046;7.010;2023-05-27T04:07:07;11.47;;;4.73;;
3081;SDS011;1551;51.046;7.010;2023-05-27T04:09:56;8.55;;;4.00;;
3081;SDS011;1551;51.046;7.010;2023-05-27T04:12:45;9.60;;;4.60;;
3081;SDS011;1551;51.046;7.010;2023-05-27T04:15:35;11.07;;;4.80;;
3081;SDS011;1551;51.046;7.010;2023-05-27T04:18:25;11.13;;;4.90;;
3081;SDS011;1551;51.046;7.010;2023-05-27T04:21:20;13.70;;;5.43;;
3081;SDS011;1551;51.046;7.010;2023-05-27T04:24:10;9.60;;;4.70;;
3081;SDS011;1551;51.046;7.010;2023-05-27T04:26:59;11.80;;;4.38;;
3081;SDS011;1551;51.046;7.010;2023-05-27T04:29:47;9.23;;;4.40;;
3081;SDS011;1551;51.046;7.010;2023-05-27T04:32:38;12.70;;;4.50;;
3081;SDS011;1551;51.046;7.010;2023-05-27T04:35:28;11.27;;;4.63;;
3081;SDS011;1551;51.046;7.010;2023-05-27T04:38:20;12.25;;;4.95;;
3081;SDS011;1551;51.046;7.010;2023-05-27T04:41:17;11.00;;;4.07;;
3081;SDS011;1551;51.046;7.010;2023-05-27T04:44:31;10.65;;;4.35;;
3081;SDS011;1551;51.046;7.010;2023-05-27T04:47:21;10.93;;;4.30;;
3081;SDS011;1551;51.046;7.010;2023-05-27T04:50:11;12.93;;;5.53;;
3081;SDS011;1551;51.046;7.010;2023-05-27T04:53:02;12.93;;;4.72;;
3081;SDS011;1551;51.046;7.010;2023-05-27T04:55:51;12.53;;;5.23;;
3081;SDS011;1551;51.046;7.010;2023-05-27T04:58:41;11.68;;;4.70;;
3081;SDS011;1551;51.046;7.010;2023-05-27T05:01:33;10.10;;;4.10;;
3081;SDS011;1551;51.046;7.010;2023-05-27T05:04:49;10.98;;;4.80;;
3081;SDS011;1551;51.046;7.010;2023-05-27T05:07:39;13.88;;;5.15;;
3081;SDS011;1551;51.046;7.010;2023-05-27T05:10:30;9.43;;;4.57;;
3081;SDS011;1551;51.046;7.010;2023-05-27T05:13:20;9.68;;;4.82;;
3081;SDS011;1551;51.046;7.010;2023-05-27T05:16:09;11.27;;;4.13;;
3081;SDS011;1551;51.046;7.010;2023-05-27T05:19:00;10.70;;;4.90;;
3081;SDS011;1551;51.046;7.010;2023-05-27T05:21:53;11.35;;;4.50;;
3081;SDS011;1551;51.046;7.010;2023-05-27T05:24:42;10.73;;;4.40;;
3081;SDS011;1551;51.046;7.010;2023-05-27T05:27:31;13.73;;;5.37;;
3081;SDS011;1551;51.046;7.010;2023-05-27T05:30:20;11.32;;;4.65;;
3081;SDS011;1551;51.046;7.010;2023-05-27T05:33:10;9.40;;;5.20;;
3081;SDS011;1551;51.046;7.010;2023-05-27T05:35:58;14.23;;;5.60;;
3081;SDS011;1551;51.046;7.010;2023-05-27T05:38:55;15.63;;;5.40;;
3081;SDS011;1551;51.046;7.010;2023-05-27T05:41:44;12.45;;;5.00;;
3081;SDS011;1551;51.046;7.010;2023-05-27T05:44:35;13.65;;;5.18;;
3081;SDS011;1551;51.046;7.010;2023-05-27T05:47:24;12.13;;;4.63;;
3081;SDS011;1551;51.046;7.010;2023-05-27T05:50:24;14.52;;;5.35;;
3081;SDS011;1551;51.046;7.010;2023-05-27T05:53:13;12.63;;;4.97;;
3081;SDS011;1551;51.046;7.010;2023-05-27T05:56:03;14.95;;;5.20;;
3081;SDS011;1551;51.046;7.010;2023-05-27T05:58:53;12.52;;;5.00;;
3081;SDS011;1551;51.046;7.010;2023-05-27T06:01:43;11.82;;;4.30;;
3081;SDS011;1551;51.046;7.010;2023-05-27T06:04:33;13.23;;;5.20;;
3081;SDS011;1551;51.046;7.010;2023-05-27T06:07:22;10.68;;;5.30;;
3081;SDS011;1551;51.046;7.010;2023-05-27T06:10:21;10.57;;;4.95;;
3081;SDS011;1551;51.046;7.010;2023-05-27T06:13:10;11.32;;;5.03;;
3081;SDS011;1551;51.046;7.010;2023-05-27T06:16:01;10.70;;;4.75;;
3081;SDS011;1551;51.046;7.010;2023-05-27T06:18:50;11.97;;;4.93;;
3081;SDS011;1551;51.046;7.010;2023-05-27T06:21:39;9.55;;;4.55;;
3081;SDS011;1551;51.046;7.010;2023-05-27T06:24:47;12.15;;;5.40;;
3081;SDS011;1551;51.046;7.010;2023-05-27T06:27:42;10.10;;;5.40;;
3081;SDS011;1551;51.046;7.010;2023-05-27T06:30:32;9.48;;;5.15;;
3081;SDS011;1551;51.046;7.010;2023-05-27T06:33:22;14.50;;;4.78;;
3081;SDS011;1551;51.046;7.010;2023-05-27T06:36:11;15.20;;;4.87;;
3081;SDS011;1551;51.046;7.010;2023-05-27T06:39:03;11.32;;;4.82;;
3081;SDS011;1551;51.046;7.010;2023-05-27T06:41:54;10.07;;;4.85;;
3081;SDS011;1551;51.046;7.010;2023-05-27T06:45:05;14.63;;;5.97;;
3081;SDS011;1551;51.046;7.010;2023-05-27T06:47:57;11.43;;;5.00;;
3081;SDS011;1551;51.046;7.010;2023-05-27T06:50:46;10.43;;;4.33;;
3081;SDS011;1551;51.046;7.010;2023-05-27T06:53:34;12.57;;;5.03;;
3081;SDS011;1551;51.046;7.010;2023-05-27T06:56:34;11.35;;;4.30;;
3081;SDS011;1551;51.046;7.010;2023-05-27T06:59:42;10.52;;;3.95;;
3081;SDS011;1551;51.046;7.010;2023-05-27T07:02:31;10.35;;;4.60;;
3081;SDS011;1551;51.046;7.010;2023-05-27T07:05:20;11.33;;;4.30;;
3081;SDS011;1551;51.046;7.010;2023-05-27T07:08:09;11.27;;;4.20;;
3081;SDS011;1551;51.046;7.010;2023-05-27T07:10:58;9.98;;;4.50;;
3081;SDS011;1551;51.046;7.010;2023-05-27T07:13:48;10.82;;;4.88;;
3081;SDS011;1551;51.046;7.010;2023-05-27T07:16:40;11.80;;;5.05;;
3081;SDS011;1551;51.046;7.010;2023-05-27T07:19:31;12.48;;;4.05;;
3081;SDS011;1551;51.046;7.010;2023-05-27T07:22:24;12.03;;;4.37;;
3081;SDS011;1551;51.046;7.010;2023-05-27T07:25:14;9.17;;;4.10;;
3081;SDS011;1551;51.046;7.010;2023-05-27T07:28:05;10.60;;;4.38;;
3081;SDS011;1551;51.046;7.010;2023-05-27T07:31:00;8.27;;;4.13;;
3081;SDS011;1551;51.046;7.010;2023-05-27T07:33:49;14.55;;;4.60;;
3081;SDS011;1551;51.046;7.010;2023-05-27T07:36:40;10.75;;;4.80;;
3081;SDS011;1551;51.046;7.010;2023-05-27T07:39:30;11.82;;;4.50;;
3081;SDS011;1551;51.046;7.010;2023-05-27T07:42:19;11.32;;;4.50;;
3081;SDS011;1551;51.046;7.010;2023-05-27T07:45:08;9.27;;;4.28;;
3081;SDS011;1551;51.046;7.010;2023-05-27T07:47:58;9.40;;;3.92;;
3081;SDS011;1551;51.046;7.010;2023-05-27T07:50:47;11.73;;;4.75;;
3081;SDS011;1551;51.046;7.010;2023-05-27T07:53:39;12.45;;;4.80;;
3081;SDS011;1551;51.046;7.010;2023-05-27T07:56:28;9.70;;;3.30;;
3081;SDS011;1551;51.046;7.010;2023-05-27T07:59:18;9.53;;;4.00;;
3081;SDS011;1551;51.046;7.010;2023-05-27T08:02:08;11.00;;;4.50;;
3081;SDS011;1551;51.046;7.010;2023-05-27T08:04:57;10.38;;;4.75;;
3081;SDS011;1551;51.046;7.010;2023-05-27T08:08:07;10.70;;;3.90;;
3081;SDS011;1551;51.046;7.010;2023-05-27T08:11:15;8.75;;;3.58;;
3081;SDS011;1551;51.046;7.010;2023-05-27T08:14:22;9.27;;;3.90;;
3081;SDS011;1551;51.046;7.010;2023-05-27T08:17:25;10.55;;;4.05;;
3081;SDS011;1551;51.046;7.010;2023-05-27T08:20:35;10.30;;;3.78;;
3081;SDS011;1551;51.046;7.010;2023-05-27T08:23:43;6.75;;;3.40;;
3081;SDS011;1551;51.046;7.010;2023-05-27T08:26:50;9.30;;;4.57;;
3081;SDS011;1551;51.046;7.010;2023-05-27T08:29:48;9.25;;;3.83;;
3081;SDS011;1551;51.046;7.010;2023-05-27T08:32:55;8.23;;;3.22;;
3081;SDS011;1551;51.046;7.010;2023-05-27T08:35:45;11.23;;;3.63;;
3081;SDS011;1551;51.046;7.010;2023-05-27T08:38:35;8.18;;;3.20;;
3081;SDS011;1551;51.046;7.010;2023-05-27T08:41:36;6.97;;;3.17;;
3081;SDS011;1551;51.046;7.010;2023-05-27T08:44:27;9.52;;;3.67;;
3081;SDS011;1551;51.046;7.010;2023-05-27T08:47:27;7.97;;;3.20;;
3081;SDS011;1551;51.046;7.010;2023-05-27T08:50:17;6.25;;;3.28;;
3081;SDS011;1551;51.046;7.010;2023-05-27T08:53:07;8.43;;;3.67;;
3081;SDS011;1551;51.046;7.010;2023-05-27T08:55:58;9.53;;;3.53;;
3081;SDS011;1551;51.046;7.010;2023-05-27T08:58:49;8.20;;;3.30;;
3081;SDS011;1551;51.046;7.010;2023-05-27T09:01:39;10.68;;;3.50;;
3081;SDS011;1551;51.046;7.010;2023-05-27T09:04:30;8.48;;;3.50;;
3081;SDS011;1551;51.046;7.010;2023-05-27T09:07:19;14.43;;;3.55;;
3081;SDS011;1551;51.046;7.010;2023-05-27T09:10:09;12.30;;;3.50;;
3081;SDS011;1551;51.046;7.010;2023-05-27T09:12:58;8.02;;;3.65;;
3081;SDS011;1551;51.046;7.010;2023-05-27T09:15:48;7.00;;;3.63;;
3081;SDS011;1551;51.046;7.010;2023-05-27T09:18:37;7.93;;;3.70;;
3081;SDS011;1551;51.046;7.010;2023-05-27T09:21:26;11.25;;;3.60;;
3081;SDS011;1551;51.046;7.010;2023-05-27T09:24:15;6.80;;;3.63;;
3081;SDS011;1551;51.046;7.010;2023-05-27T09:27:05;6.85;;;3.47;;
3081;SDS011;1551;51.046;7.010;2023-05-27T09:29:54;5.33;;;3.27;;
3081;SDS011;1551;51.046;7.010;2023-05-27T09:32:43;6.68;;;3.38;;
3081;SDS011;1551;51.046;7.010;2023-05-27T09:35:36;8.50;;;3.20;;
3081;SDS011;1551;51.046;7.010;2023-05-27T09:38:31;8.40;;;3.53;;
3081;SDS011;1551;51.046;7.010;2023-05-27T09:41:25;9.93;;;3.42;;
3081;SDS011;1551;51.046;7.010;2023-05-27T09:44:15;8.80;;;4.30;;
3081;SDS011;1551;51.046;7.010;2023-05-27T09:47:04;8.77;;;3.37;;
3081;SDS011;1551;51.046;7.010;2023-05-27T09:49:54;8.68;;;3.20;;
3081;SDS011;1551;51.046;7.010;2023-05-27T09:52:44;8.00;;;3.33;;
3081;SDS011;1551;51.046;7.010;2023-05-27T09:55:34;7.75;;;2.85;;
3081;SDS011;1551;51.046;7.010;2023-05-27T09:58:24;7.53;;;3.60;;
3081;SDS011;1551;51.046;7.010;2023-05-27T10:01:13;8.93;;;3.80;;
3081;SDS011;1551;51.046;7.010;2023-05-27T10:04:03;6.00;;;2.90;;
3081;SDS011;1551;51.046;7.010;2023-05-27T10:06:53;6.20;;;3.00;;
3081;SDS011;1551;51.046;7.010;2023-05-27T10:09:42;8.70;;;3.40;;
3081;SDS011;1551;51.046;7.010;2023-05-27T10:12:32;7.47;;;3.13;;
3081;SDS011;1551;51.046;7.010;2023-05-27T10:18:26;6.45;;;3.13;;
3081;SDS011;1551;51.046;7.010;2023-05-27T10:21:20;8.50;;;3.70;;
3081;SDS011;1551;51.046;7.010;2023-05-27T10:24:10;8.38;;;3.75;;
3081;SDS011;1551;51.046;7.010;2023-05-27T10:27:01;9.48;;;3.40;;
3081;SDS011;1551;51.046;7.010;2023-05-27T10:29:57;8.18;;;2.97;;
3081;SDS011;1551;51.046;7.010;2023-05-27T10:32:47;6.50;;;3.20;;
3081;SDS011;1551;51.046;7.010;2023-05-27T10:35:41;6.90;;;3.13;;
3081;SDS011;1551;51.046;7.010;2023-05-27T10:38:31;6.55;;;3.17;;
3081;SDS011;1551;51.046;7.010;2023-05-27T10:41:19;6.80;;;3.30;;
3081;SDS011;1551;51.046;7.010;2023-05-27T10:44:10;7.82;;;3.97;;
3081;SDS011;1551;51.046;7.010;2023-05-27T10:47:03;5.65;;;3.35;;
3081;SDS011;1551;51.046;7.010;2023-05-27T10:49:53;9.27;;;3.40;;
3081;SDS011;1551;51.046;7.010;2023-05-27T10:52:46;7.00;;;3.05;;
3081;SDS011;1551;51.046;7.010;2023-05-27T10:55:37;8.13;;;3.30;;
3081;SDS011;1551;51.046;7.010;2023-05-27T10:58:26;8.02;;;3.42;;
3081;SDS011;1551;51.046;7.010;2023-05-27T11:01:16;8.35;;;3.50;;
3081;SDS011;1551;51.046;7.010;2023-05-27T11:04:06;6.68;;;3.50;;
3081;SDS011;1551;51.046;7.010;2023-05-27T11:06:56;6.82;;;3.50;;
3081;SDS011;1551;51.046;7.010;2023-05-27T11:09:50;7.07;;;3.00;;
3081;SDS011;1551;51.046;7.010;2023-05-27T11:12:43;6.17;;;3.23;;
3081;SDS011;1551;51.046;7.010;2023-05-27T11:15:33;7.05;;;3.20;;
3081;SDS011;1551;51.046;7.010;2023-05-27T11:18:22;5.80;;;2.92;;
3081;SDS011;1551;51.046;7.010;2023-05-27T11:21:11;6.37;;;3.07;;
3081;SDS011;1551;51.046;7.010;2023-05-27T11:24:02;7.63;;;3.38;;
3081;SDS011;1551;51.046;7.010;2023-05-27T11:27:10;7.60;;;3.55;;
3081;SDS011;1551;51.046;7.010;2023-05-27T11:30:09;8.15;;;3.42;;
3081;SDS011;1551;51.046;7.010;2023-05-27T11:33:01;7.38;;;3.10;;
3081;SDS011;1551;51.046;7.010;2023-05-27T11:35:52;6.70;;;3.85;;
3081;SDS011;1551;51.046;7.010;2023-05-27T11:41:48;7.95;;;3.00;;
3081;SDS011;1551;51.046;7.010;2023-05-27T11:44:49;7.90;;;3.40;;
3081;SDS011;1551;51.046;7.010;2023-05-27T11:47:42;7.82;;;3.30;;
3081;SDS011;1551;51.046;7.010;2023-05-27T11:50:33;7.90;;;2.83;;
3081;SDS011;1551;51.046;7.010;2023-05-27T11:53:26;6.38;;;2.60;;
3081;SDS011;1551;51.046;7.010;2023-05-27T11:56:18;5.57;;;3.15;;
3081;SDS011;1551;51.046;7.010;2023-05-27T11:59:07;5.20;;;2.72;;
3081;SDS011;1551;51.046;7.010;2023-05-27T12:01:56;5.20;;;2.80;;
3081;SDS011;1551;51.046;7.010;2023-05-27T12:04:45;5.43;;;2.40;;
3081;SDS011;1551;51.046;7.010;2023-05-27T12:07:34;7.40;;;3.08;;
3081;SDS011;1551;51.046;7.010;2023-05-27T12:10:24;5.13;;;3.08;;
3081;SDS011;1551;51.046;7.010;2023-05-27T12:13:13;5.57;;;2.90;;
3081;SDS011;1551;51.046;7.010;2023-05-27T12:16:02;6.20;;;2.90;;
3081;SDS011;1551;51.046;7.010;2023-05-27T12:18:52;7.10;;;3.60;;
3081;SDS011;1551;51.046;7.010;2023-05-27T12:21:41;6.07;;;3.70;;
3081;SDS011;1551;51.046;7.010;2023-05-27T12:24:30;5.65;;;3.00;;
3081;SDS011;1551;51.046;7.010;2023-05-27T12:27:19;4.72;;;3.17;;
3081;SDS011;1551;51.046;7.010;2023-05-27T12:30:09;4.83;;;2.73;;
3081;SDS011;1551;51.046;7.010;2023-05-27T12:32:58;4.85;;;3.05;;
3081;SDS011;1551;51.046;7.010;2023-05-27T12:35:48;7.68;;;3.25;;
3081;SDS011;1551;51.046;7.010;2023-05-27T12:38:37;6.07;;;4.07;;
3081;SDS011;1551;51.046;7.010;2023-05-27T12:41:26;5.90;;;3.20;;
3081;SDS011;1551;51.046;7.010;2023-05-27T12:44:15;5.80;;;3.20;;
3081;SDS011;1551;51.046;7.010;2023-05-27T12:47:07;4.95;;;3.20;;
3081;SDS011;1551;51.046;7.010;2023-05-27T12:49:56;6.95;;;3.20;;
3081;SDS011;1551;51.046;7.010;2023-05-27T12:52:46;6.35;;;2.95;;
3081;SDS011;1551;51.046;7.010;2023-05-27T12:55:35;6.57;;;3.92;;
3081;SDS011;1551;51.046;7.010;2023-05-27T12:58:25;8.15;;;4.07;;
3081;SDS011;1551;51.046;7.010;2023-05-27T13:01:14;6.75;;;3.00;;
3081;SDS011;1551;51.046;7.010;2023-05-27T13:04:03;9.02;;;3.30;;
3081;SDS011;1551;51.046;7.010;2023-05-27T13:06:51;5.57;;;2.92;;
3081;SDS011;1551;51.046;7.010;2023-05-27T13:09:40;5.53;;;3.35;;
3081;SDS011;1551;51.046;7.010;2023-05-27T13:12:31;8.55;;;3.35;;
3081;SDS011;1551;51.046;7.010;2023-05-27T13:15:21;7.38;;;3.65;;
3081;SDS011;1551;51.046;7.010;2023-05-27T13:18:11;9.60;;;4.70;;
3081;SDS011;1551;51.046;7.010;2023-05-27T13:21:01;7.40;;;3.70;;
3081;SDS011;1551;51.046;7.010;2023-05-27T13:23:49;6.47;;;3.72;;
3081;SDS011;1551;51.046;7.010;2023-05-27T13:26:38;5.50;;;3.20;;
3081;SDS011;1551;51.046;7.010;2023-05-27T13:29:27;5.72;;;3.38;;
3081;SDS011;1551;51.046;7.010;2023-05-27T13:32:16;5.90;;;3.63;;
3081;SDS011;1551;51.046;7.010;2023-05-27T13:35:06;7.63;;;3.70;;
3081;SDS011;1551;51.046;7.010;2023-05-27T13:37:55;5.55;;;3.05;;
3081;SDS011;1551;51.046;7.010;2023-05-27T13:40:44;7.50;;;3.33;;
3081;SDS011;1551;51.046;7.010;2023-05-27T13:43:33;6.00;;;3.10;;
3081;SDS011;1551;51.046;7.010;2023-05-27T13:46:22;7.00;;;4.13;;
3081;SDS011;1551;51.046;7.010;2023-05-27T13:49:11;5.65;;;3.20;;
3081;SDS011;1551;51.046;7.010;2023-05-27T13:52:00;6.97;;;3.40;;
3081;SDS011;1551;51.046;7.010;2023-05-27T13:54:48;6.63;;;3.50;;
3081;SDS011;1551;51.046;7.010;2023-05-27T13:57:37;6.00;;;3.80;;
3081;SDS011;1551;51.046;7.010;2023-05-27T14:00:26;6.63;;;4.40;;
3081;SDS011;1551;51.046;7.010;2023-05-27T14:03:15;6.55;;;3.55;;
3081;SDS011;1551;51.046;7.010;2023-05-27T14:06:04;5.10;;;3.10;;
3081;SDS011;1551;51.046;7.010;2023-05-27T14:08:55;5.07;;;3.40;;
3081;SDS011;1551;51.046;7.010;2023-05-27T14:11:44;6.32;;;3.10;;
3081;SDS011;1551;51.046;7.010;2023-05-27T14:14:33;7.80;;;3.55;;
3081;SDS011;1551;51.046;7.010;2023-05-27T14:17:22;6.20;;;3.60;;
3081;SDS011;1551;51.046;7.010;2023-05-27T14:20:11;5.30;;;3.15;;
3081;SDS011;1551;51.046;7.010;2023-05-27T14:23:01;4.95;;;3.40;;
3081;SDS011;1551;51.046;7.010;2023-05-27T14:25:52;6.57;;;3.85;;
3081;SDS011;1551;51.046;7.010;2023-05-27T14:28:43;5.50;;;3.40;;
3081;SDS011;1551;51.046;7.010;2023-05-27T14:31:32;5.60;;;3.10;;
3081;SDS011;1551;51.046;7.010;2023-05-27T14:34:21;6.07;;;4.00;;
3081;SDS011;1551;51.046;7.010;2023-05-27T14:37:10;6.80;;;3.90;;
3081;SDS011;1551;51.046;7.010;2023-05-27T14:39:59;5.10;;;3.75;;
3081;SDS011;1551;51.046;7.010;2023-05-27T14:42:48;9.32;;;3.75;;
3081;SDS011;1551;51.046;7.010;2023-05-27T14:45:36;6.32;;;4.20;;
3081;SDS011;1551;51.046;7.010;2023-05-27T14:48:26;5.77;;;3.50;;
3081;SDS011;1551;51.046;7.010;2023-05-27T14:51:15;6.63;;;4.13;;
3081;SDS011;1551;51.046;7.010;2023-05-27T14:54:05;7.45;;;3.75;;
3081;SDS011;1551;51.046;7.010;2023-05-27T14:56:54;7.05;;;3.70;;
3081;SDS011;1551;51.046;7.010;2023-05-27T14:59:43;7.00;;;3.40;;
3081;SDS011;1551;51.046;7.010;2023-05-27T15:02:31;6.30;;;4.40;;
3081;SDS011;1551;51.046;7.010;2023-05-27T15:05:20;6.80;;;3.70;;
3081;SDS011;1551;51.046;7.010;2023-05-27T15:08:09;6.60;;;4.32;;
3081;SDS011;1551;51.046;7.010;2023-05-27T15:11:04;6.05;;;3.90;;
3081;SDS011;1551;51.046;7.010;2023-05-27T15:13:53;6.47;;;4.20;;
3081;SDS011;1551;51.046;7.010;2023-05-27T15:16:44;6.68;;;4.03;;
3081;SDS011;1551;51.046;7.010;2023-05-27T15:19:33;5.97;;;3.50;;
3081;SDS011;1551;51.046;7.010;2023-05-27T15:22:21;6.45;;;3.70;;
3081;SDS011;1551;51.046;7.010;2023-05-27T15:25:10;9.32;;;4.63;;
3081;SDS011;1551;51.046;7.010;2023-05-27T15:27:59;6.00;;;3.80;;
3081;SDS011;1551;51.046;7.010;2023-05-27T15:30:48;7.93;;;3.80;;
3081;SDS011;1551;51.046;7.010;2023-05-27T15:33:37;7.50;;;4.00;;
3081;SDS011;1551;51.046;7.010;2023-05-27T15:36:26;5.85;;;3.40;;
3081;SDS011;1551;51.046;7.010;2023-05-27T15:39:15;6.05;;;3.67;;
3081;SDS011;1551;51.046;7.010;2023-05-27T15:42:04;11.10;;;4.00;;
3081;SDS011;1551;51.046;7.010;2023-05-27T15:44:55;11.25;;;5.10;;
3081;SDS011;1551;51.046;7.010;2023-05-27T15:47:44;6.70;;;4.05;;
3081;SDS011;1551;51.046;7.010;2023-05-27T15:50:33;8.48;;;4.05;;
3081;SDS011;1551;51.046;7.010;2023-05-27T15:53:22;7.40;;;3.70;;
3081;SDS011;1551;51.046;7.010;2023-05-27T15:56:11;7.03;;;3.80;;
3081;SDS011;1551;51.046;7.010;2023-05-27T15:59:00;7.82;;;3.92;;
3081;SDS011;1551;51.046;7.010;2023-05-27T16:01:49;7.30;;;3.83;;
3081;SDS011;1551;51.046;7.010;2023-05-27T16:04:38;6.72;;;3.60;;
3081;SDS011;1551;51.046;7.010;2023-05-27T16:07:27;7.17;;;4.00;;
3081;SDS011;1551;51.046;7.010;2023-05-27T16:10:18;9.63;;;3.88;;
3081;SDS011;1551;51.046;7.010;2023-05-27T16:13:09;7.05;;;3.90;;
3081;SDS011;1551;51.046;7.010;2023-05-27T16:15:58;9.50;;;4.40;;
3081;SDS011;1551;51.046;7.010;2023-05-27T16:18:47;7.70;;;4.00;;
3081;SDS011;1551;51.046;7.010;2023-05-27T16:21:35;8.35;;;4.13;;
3081;SDS011;1551;51.046;7.010;2023-05-27T16:24:24;6.63;;;3.33;;
3081;SDS011;1551;51.046;7.010;2023-05-27T16:27:14;10.20;;;3.70;;
3081;SDS011;1551;51.046;7.010;2023-05-27T16:30:04;7.60;;;3.78;;
3081;SDS011;1551;51.046;7.010;2023-05-27T16:32:53;9.30;;;5.20;;
3081;SDS011;1551;51.046;7.010;2023-05-27T16:35:42;9.43;;;4.05;;
3081;SDS011;1551;51.046;7.010;2023-05-27T16:38:32;7.45;;;4.30;;
3081;SDS011;1551;51.046;7.010;2023-05-27T16:41:22;13.43;;;4.47;;
3081;SDS011;1551;51.046;7.010;2023-05-27T16:44:11;7.40;;;4.13;;
3081;SDS011;1551;51.046;7.010;2023-05-27T16:47:00;7.38;;;4.03;;
3081;SDS011;1551;51.046;7.010;2023-05-27T16:49:48;8.80;;;4.00;;
3081;SDS011;1551;51.046;7.010;2023-05-27T16:52:38;7.75;;;3.88;;
3081;SDS011;1551;51.046;7.010;2023-05-27T16:55:27;7.90;;;4.28;;
3081;SDS011;1551;51.046;7.010;2023-05-27T16:58:16;8.60;;;4.40;;
3081;SDS011;1551;51.046;7.010;2023-05-27T17:01:05;7.70;;;4.53;;
3081;SDS011;1551;51.046;7.010;2023-05-27T17:03:54;9.70;;;4.70;;
3081;SDS011;1551;51.046;7.010;2023-05-27T17:06:43;7.95;;;4.57;;
3081;SDS011;1551;51.046;7.010;2023-05-27T17:09:32;6.95;;;3.60;;
3081;SDS011;1551;51.046;7.010;2023-05-27T17:12:22;6.70;;;4.07;;
3081;SDS011;1551;51.046;7.010;2023-05-27T17:15:11;7.60;;;4.00;;
3081;SDS011;1551;51.046;7.010;2023-05-27T17:17:59;7.68;;;4.00;;
3081;SDS011;1551;51.046;7.010;2023-05-27T17:20:48;7.50;;;4.45;;
3081;SDS011;1551;51.046;7.010;2023-05-27T17:23:37;7.82;;;4.55;;
3081;SDS011;1551;51.046;7.010;2023-05-27T17:26:26;6.57;;;4.27;;
3081;SDS011;1551;51.046;7.010;2023-05-27T17:29:15;6.68;;;3.80;;
3081;SDS011;1551;51.046;7.010;2023-05-27T17:32:04;7.65;;;3.55;;
3081;SDS011;1551;51.046;7.010;2023-05-27T17:34:54;6.53;;;4.00;;
3081;SDS011;1551;51.046;7.010;2023-05-27T17:37:42;7.00;;;3.75;;
3081;SDS011;1551;51.046;7.010;2023-05-27T17:40:32;7.20;;;4.00;;
3081;SDS011;1551;51.046;7.010;2023-05-27T17:43:20;6.20;;;4.20;;